FDX1260 KCVG-KMEM
Flight info
| Callsign | FDX1260 |
|---|---|
| Flight time | N/A |
| Altitude | 32000 |
| Route | CHCLL6 RAMRD BLUZZ5 |
| Aircraft | B763/H-SDE3FGHIM3RWXY/LB1 |
Departure
| Time | N/A |
|---|---|
| Airport | Cincinnati Northern Kentucky International Airport (KCVG) |
Arrival
| Time | 2026-05-05 13:36 |
|---|---|
| Airport | Memphis International Airport (KMEM) |
| Time | Latitude | Longitude | Altitude | Speed | Heading |
|---|---|---|---|---|---|
| 2026-05-05 13:14 | 35.94771 | -88.60912 | 20406 ft | 353 kts | 243° |
| 2026-05-05 13:14 | 35.93543 | -88.63537 | 20012 ft | 352 kts | 242° |
| 2026-05-05 13:14 | 35.92332 | -88.66119 | 19623 ft | 348 kts | 242° |
| 2026-05-05 13:14 | 35.91121 | -88.68705 | 19229 ft | 347 kts | 242° |
| 2026-05-05 13:15 | 35.89933 | -88.71238 | 18852 ft | 345 kts | 242° |
| 2026-05-05 13:15 | 35.88747 | -88.73764 | 18471 ft | 345 kts | 242° |
| 2026-05-05 13:15 | 35.87555 | -88.76302 | 18086 ft | 342 kts | 242° |
| 2026-05-05 13:15 | 35.86405 | -88.78748 | 17723 ft | 340 kts | 242° |
| 2026-05-05 13:16 | 35.85215 | -88.81278 | 17340 ft | 341 kts | 242° |
| 2026-05-05 13:16 | 35.84110 | -88.83627 | 16988 ft | 340 kts | 241° |
| 2026-05-05 13:16 | 35.82928 | -88.86135 | 16616 ft | 337 kts | 241° |
| 2026-05-05 13:16 | 35.81753 | -88.88625 | 16259 ft | 337 kts | 241° |
| 2026-05-05 13:17 | 35.80591 | -88.91088 | 15896 ft | 333 kts | 241° |
| 2026-05-05 13:17 | 35.79414 | -88.93582 | 15528 ft | 335 kts | 241° |
| 2026-05-05 13:17 | 35.78248 | -88.96048 | 15162 ft | 329 kts | 241° |
| 2026-05-05 13:17 | 35.77104 | -88.98467 | 14794 ft | 329 kts | 241° |
| 2026-05-05 13:18 | 35.75949 | -89.00911 | 14423 ft | 328 kts | 241° |
| 2026-05-05 13:18 | 35.74812 | -89.03310 | 14050 ft | 325 kts | 241° |
| 2026-05-05 13:18 | 35.73669 | -89.05721 | 13689 ft | 325 kts | 240° |
| 2026-05-05 13:18 | 35.72330 | -89.07922 | 13322 ft | 324 kts | 228° |
| 2026-05-05 13:19 | 35.70763 | -89.09933 | 13017 ft | 320 kts | 229° |
| 2026-05-05 13:19 | 35.69237 | -89.11936 | 12691 ft | 322 kts | 229° |
| 2026-05-05 13:19 | 35.67705 | -89.13927 | 12339 ft | 318 kts | 229° |
| 2026-05-05 13:19 | 35.66176 | -89.15910 | 12029 ft | 317 kts | 228° |
| 2026-05-05 13:20 | 35.64657 | -89.17875 | 11709 ft | 314 kts | 229° |
| 2026-05-05 13:20 | 35.63182 | -89.19852 | 11404 ft | 314 kts | 231° |
| 2026-05-05 13:20 | 35.62020 | -89.22052 | 11058 ft | 310 kts | 248° |
| 2026-05-05 13:20 | 35.61510 | -89.24662 | 10835 ft | 312 kts | 266° |
| 2026-05-05 13:21 | 35.61675 | -89.27280 | 10607 ft | 312 kts | 277° |
| 2026-05-05 13:21 | 35.62045 | -89.29874 | 10311 ft | 304 kts | 277° |
| 2026-05-05 13:21 | 35.62420 | -89.32369 | 10295 ft | 289 kts | 278° |
| 2026-05-05 13:21 | 35.62786 | -89.34753 | 10255 ft | 275 kts | 278° |
| 2026-05-05 13:22 | 35.63144 | -89.37025 | 10224 ft | 267 kts | 278° |
| 2026-05-05 13:22 | 35.63490 | -89.39217 | 10206 ft | 261 kts | 278° |
| 2026-05-05 13:22 | 35.63834 | -89.41408 | 10200 ft | 261 kts | 278° |
| 2026-05-05 13:22 | 35.64016 | -89.43617 | 10199 ft | 258 kts | 260° |
| 2026-05-05 13:23 | 35.63520 | -89.45712 | 10249 ft | 257 kts | 248° |
| 2026-05-05 13:23 | 35.62821 | -89.47751 | 10246 ft | 259 kts | 247° |
| 2026-05-05 13:23 | 35.62114 | -89.49791 | 10243 ft | 257 kts | 247° |
| 2026-05-05 13:23 | 35.61420 | -89.51797 | 10232 ft | 257 kts | 247° |
| 2026-05-05 13:24 | 35.60607 | -89.53759 | 10235 ft | 257 kts | 239° |
| 2026-05-05 13:24 | 35.59576 | -89.55553 | 10239 ft | 258 kts | 232° |
| 2026-05-05 13:24 | 35.58348 | -89.57176 | 10231 ft | 257 kts | 225° |
| 2026-05-05 13:24 | 35.57021 | -89.58662 | 10227 ft | 257 kts | 227° |
| 2026-05-05 13:25 | 35.55780 | -89.60234 | 10226 ft | 258 kts | 228° |
| 2026-05-05 13:25 | 35.54953 | -89.61298 | 10227 ft | 258 kts | 228° |
| 2026-05-05 13:25 | 35.53300 | -89.63417 | 10219 ft | 258 kts | 228° |
| 2026-05-05 13:25 | 35.52070 | -89.65000 | 10211 ft | 258 kts | 228° |
| 2026-05-05 13:26 | 35.50806 | -89.66626 | 10217 ft | 258 kts | 227° |
| 2026-05-05 13:26 | 35.49589 | -89.68182 | 10210 ft | 258 kts | 227° |
| 2026-05-05 13:26 | 35.48402 | -89.69700 | 10211 ft | 257 kts | 227° |
| 2026-05-05 13:26 | 35.47159 | -89.71290 | 10210 ft | 257 kts | 227° |
| 2026-05-05 13:27 | 35.45906 | -89.72894 | 10202 ft | 258 kts | 227° |
| 2026-05-05 13:27 | 35.44665 | -89.74487 | 10190 ft | 257 kts | 227° |
| 2026-05-05 13:27 | 35.43441 | -89.76060 | 10074 ft | 257 kts | 227° |
| 2026-05-05 13:27 | 35.42186 | -89.77679 | 9512 ft | 266 kts | 227° |
| 2026-05-05 13:28 | 35.40907 | -89.79345 | 8974 ft | 273 kts | 227° |
| 2026-05-05 13:28 | 35.39607 | -89.81049 | 8404 ft | 278 kts | 227° |
| 2026-05-05 13:28 | 35.38297 | -89.82779 | 7748 ft | 276 kts | 227° |
| 2026-05-05 13:28 | 35.37005 | -89.84497 | 7134 ft | 273 kts | 228° |
| 2026-05-05 13:29 | 35.35721 | -89.86211 | 6517 ft | 271 kts | 228° |
| 2026-05-05 13:29 | 35.34470 | -89.87891 | 5906 ft | 269 kts | 228° |
| 2026-05-05 13:29 | 35.33210 | -89.89591 | 5285 ft | 266 kts | 228° |
| 2026-05-05 13:29 | 35.31985 | -89.91251 | 4673 ft | 264 kts | 228° |
| 2026-05-05 13:30 | 35.30761 | -89.92924 | 4055 ft | 262 kts | 227° |
| 2026-05-05 13:30 | 35.29574 | -89.94566 | 3442 ft | 260 kts | 228° |
| 2026-05-05 13:30 | 35.28398 | -89.96210 | 2975 ft | 251 kts | 228° |
| 2026-05-05 13:30 | 35.27250 | -89.97702 | 2951 ft | 226 kts | 213° |
| 2026-05-05 13:31 | 35.25845 | -89.98187 | 2996 ft | 208 kts | 179° |
| 2026-05-05 13:31 | 35.24440 | -89.97971 | 3019 ft | 195 kts | 180° |
| 2026-05-05 13:31 | 35.23109 | -89.97842 | 3023 ft | 188 kts | 182° |
| 2026-05-05 13:32 | 35.20266 | -89.97671 | 2981 ft | 188 kts | 183° |
| 2026-05-05 13:32 | 35.18989 | -89.97618 | 2965 ft | 176 kts | 184° |
| 2026-05-05 13:32 | 35.17771 | -89.97579 | 2757 ft | 171 kts | 184° |
| 2026-05-05 13:32 | 35.16634 | -89.97546 | 2532 ft | 162 kts | 184° |
| 2026-05-05 13:33 | 35.15492 | -89.97521 | 2333 ft | 164 kts | 182° |
| 2026-05-05 13:33 | 35.14332 | -89.97495 | 2118 ft | 166 kts | 183° |
| 2026-05-05 13:34 | 35.08770 | -89.97374 | 1051 ft | 154 kts | 181° |
| 2026-05-05 13:34 | 35.07765 | -89.97354 | 857 ft | 135 kts | 181° |
| 2026-05-05 13:35 | 35.06856 | -89.97335 | 679 ft | 128 kts | 180° |
| 2026-05-05 13:35 | 35.05957 | -89.97318 | 518 ft | 132 kts | 180° |
| 2026-05-05 13:35 | 35.05041 | -89.97298 | 364 ft | 133 kts | 180° |
| 2026-05-05 13:35 | 35.04101 | -89.97279 | 303 ft | 131 kts | 179° |
| 2026-05-05 13:36 | 35.03428 | -89.97266 | 312 ft | 51 kts | 178° |
| 2026-05-05 13:36 | 35.03125 | -89.97260 | 316 ft | 41 kts | 179° |
| 2026-05-05 13:36 | 35.02853 | -89.97253 | 319 ft | 37 kts | 178° |
| 2026-05-05 13:36 | 35.02626 | -89.97242 | 322 ft | 20 kts | 165° |
| 2026-05-05 13:37 | 35.02560 | -89.97109 | 318 ft | 20 kts | 76° |
| 2026-05-05 13:37 | 35.02674 | -89.97018 | 314 ft | 21 kts | 354° |
| 2026-05-05 13:37 | 35.02834 | -89.97047 | 313 ft | 24 kts | 348° |
| 2026-05-05 13:37 | 35.03014 | -89.97073 | 312 ft | 27 kts | 359° |
| 2026-05-05 13:38 | 35.03214 | -89.97078 | 310 ft | 31 kts | 359° |
| 2026-05-05 13:38 | 35.03474 | -89.97083 | 306 ft | 43 kts | 359° |
| 2026-05-05 13:38 | 35.03793 | -89.97090 | 300 ft | 46 kts | 359° |
| 2026-05-05 13:38 | 35.04117 | -89.97097 | 294 ft | 47 kts | 359° |
| 2026-05-05 13:39 | 35.04445 | -89.97068 | 288 ft | 46 kts | 9° |
| 2026-05-05 13:39 | 35.04540 | -89.97060 | 286 ft | 39 kts | 359° |
| 2026-05-05 13:40 | 35.05440 | -89.96986 | 274 ft | 36 kts | 8° |
| 2026-05-05 13:40 | 35.05522 | -89.96972 | 273 ft | 36 kts | 8° |
| 2026-05-05 13:40 | 35.05898 | -89.96912 | 269 ft | 8 kts | 335° |
| 2026-05-05 13:40 | 35.05927 | -89.96993 | 269 ft | 14 kts | 271° |
| 2026-05-05 13:41 | 35.05953 | -89.97111 | 268 ft | 13 kts | 345° |
| 2026-05-05 13:41 | 35.06022 | -89.97110 | 267 ft | 0 kts | 2° |